sensor_id;sensor_type;location;lat;lon;timestamp;P1;durP1;ratioP1;P2;durP2;ratioP2
21420;SDS011;10871;50.144;8.428;2023-12-28T00:01:43;17.17;;;9.85;;
21420;SDS011;10871;50.144;8.428;2023-12-28T00:04:09;18.13;;;8.77;;
21420;SDS011;10871;50.144;8.428;2023-12-28T00:06:36;15.52;;;8.52;;
21420;SDS011;10871;50.144;8.428;2023-12-28T00:09:02;18.13;;;9.40;;
21420;SDS011;10871;50.144;8.428;2023-12-28T00:11:37;19.17;;;8.35;;
21420;SDS011;10871;50.144;8.428;2023-12-28T00:14:03;14.85;;;8.45;;
21420;SDS011;10871;50.144;8.428;2023-12-28T00:16:33;15.80;;;8.25;;
21420;SDS011;10871;50.144;8.428;2023-12-28T00:19:00;15.93;;;8.90;;
21420;SDS011;10871;50.144;8.428;2023-12-28T00:21:29;13.35;;;8.27;;
21420;SDS011;10871;50.144;8.428;2023-12-28T00:23:55;12.70;;;8.20;;
21420;SDS011;10871;50.144;8.428;2023-12-28T00:26:22;16.30;;;7.82;;
21420;SDS011;10871;50.144;8.428;2023-12-28T00:29:00;20.25;;;8.35;;
21420;SDS011;10871;50.144;8.428;2023-12-28T00:31:26;16.65;;;8.25;;
21420;SDS011;10871;50.144;8.428;2023-12-28T00:33:53;14.70;;;8.38;;
21420;SDS011;10871;50.144;8.428;2023-12-28T00:36:19;14.30;;;8.18;;
21420;SDS011;10871;50.144;8.428;2023-12-28T00:38:46;14.20;;;7.57;;
21420;SDS011;10871;50.144;8.428;2023-12-28T00:41:13;12.82;;;7.75;;
21420;SDS011;10871;50.144;8.428;2023-12-28T00:43:39;12.75;;;7.32;;
21420;SDS011;10871;50.144;8.428;2023-12-28T00:46:06;11.23;;;7.10;;
21420;SDS011;10871;50.144;8.428;2023-12-28T00:48:32;12.02;;;7.38;;
21420;SDS011;10871;50.144;8.428;2023-12-28T00:51:00;12.88;;;6.82;;
21420;SDS011;10871;50.144;8.428;2023-12-28T00:53:27;11.20;;;7.43;;
21420;SDS011;10871;50.144;8.428;2023-12-28T00:55:54;10.23;;;6.50;;
21420;SDS011;10871;50.144;8.428;2023-12-28T00:58:21;11.75;;;6.97;;
21420;SDS011;10871;50.144;8.428;2023-12-28T01:00:47;11.82;;;7.20;;
21420;SDS011;10871;50.144;8.428;2023-12-28T01:03:14;8.95;;;6.18;;
21420;SDS011;10871;50.144;8.428;2023-12-28T01:05:41;12.07;;;6.72;;
21420;SDS011;10871;50.144;8.428;2023-12-28T01:08:07;12.13;;;7.75;;
21420;SDS011;10871;50.144;8.428;2023-12-28T01:10:33;12.00;;;7.50;;
21420;SDS011;10871;50.144;8.428;2023-12-28T01:13:00;11.15;;;6.88;;
21420;SDS011;10871;50.144;8.428;2023-12-28T01:15:26;11.80;;;7.10;;
21420;SDS011;10871;50.144;8.428;2023-12-28T01:17:53;11.90;;;7.03;;
21420;SDS011;10871;50.144;8.428;2023-12-28T01:20:19;11.38;;;6.65;;
21420;SDS011;10871;50.144;8.428;2023-12-28T01:22:46;10.23;;;6.60;;
21420;SDS011;10871;50.144;8.428;2023-12-28T01:25:12;12.73;;;6.75;;
21420;SDS011;10871;50.144;8.428;2023-12-28T01:27:40;10.85;;;6.03;;
21420;SDS011;10871;50.144;8.428;2023-12-28T01:30:07;11.98;;;6.47;;
21420;SDS011;10871;50.144;8.428;2023-12-28T01:32:33;11.15;;;6.28;;
21420;SDS011;10871;50.144;8.428;2023-12-28T01:35:00;10.10;;;6.65;;
21420;SDS011;10871;50.144;8.428;2023-12-28T01:37:26;12.23;;;6.00;;
21420;SDS011;10871;50.144;8.428;2023-12-28T01:39:57;8.18;;;6.38;;
21420;SDS011;10871;50.144;8.428;2023-12-28T01:42:23;9.20;;;5.70;;
21420;SDS011;10871;50.144;8.428;2023-12-28T01:44:49;9.38;;;5.93;;
21420;SDS011;10871;50.144;8.428;2023-12-28T01:47:16;9.80;;;6.07;;
21420;SDS011;10871;50.144;8.428;2023-12-28T01:49:42;10.75;;;6.15;;
21420;SDS011;10871;50.144;8.428;2023-12-28T01:52:10;10.07;;;6.28;;
21420;SDS011;10871;50.144;8.428;2023-12-28T01:54:36;8.52;;;5.85;;
21420;SDS011;10871;50.144;8.428;2023-12-28T01:57:03;10.13;;;5.72;;
21420;SDS011;10871;50.144;8.428;2023-12-28T01:59:30;9.30;;;5.63;;
21420;SDS011;10871;50.144;8.428;2023-12-28T02:01:57;7.00;;;5.68;;
21420;SDS011;10871;50.144;8.428;2023-12-28T02:04:23;11.07;;;6.07;;
21420;SDS011;10871;50.144;8.428;2023-12-28T02:06:56;11.93;;;5.88;;
21420;SDS011;10871;50.144;8.428;2023-12-28T02:09:22;10.50;;;5.60;;
21420;SDS011;10871;50.144;8.428;2023-12-28T02:11:49;10.07;;;5.78;;
21420;SDS011;10871;50.144;8.428;2023-12-28T02:14:16;8.38;;;5.13;;
21420;SDS011;10871;50.144;8.428;2023-12-28T02:16:54;10.15;;;5.53;;
21420;SDS011;10871;50.144;8.428;2023-12-28T02:19:30;10.60;;;5.70;;
21420;SDS011;10871;50.144;8.428;2023-12-28T02:21:58;10.75;;;5.57;;
21420;SDS011;10871;50.144;8.428;2023-12-28T02:24:25;7.38;;;5.13;;
21420;SDS011;10871;50.144;8.428;2023-12-28T02:26:53;10.27;;;5.60;;
21420;SDS011;10871;50.144;8.428;2023-12-28T02:29:19;7.85;;;5.05;;
21420;SDS011;10871;50.144;8.428;2023-12-28T02:31:46;8.02;;;5.10;;
21420;SDS011;10871;50.144;8.428;2023-12-28T02:34:19;8.77;;;5.28;;
21420;SDS011;10871;50.144;8.428;2023-12-28T02:36:47;7.78;;;5.22;;
21420;SDS011;10871;50.144;8.428;2023-12-28T02:39:14;7.82;;;4.85;;
21420;SDS011;10871;50.144;8.428;2023-12-28T02:41:42;8.15;;;4.90;;
21420;SDS011;10871;50.144;8.428;2023-12-28T02:44:09;7.60;;;5.22;;
21420;SDS011;10871;50.144;8.428;2023-12-28T02:46:35;6.50;;;4.47;;
21420;SDS011;10871;50.144;8.428;2023-12-28T02:49:03;8.23;;;4.90;;
21420;SDS011;10871;50.144;8.428;2023-12-28T02:51:32;9.85;;;4.65;;
21420;SDS011;10871;50.144;8.428;2023-12-28T02:53:58;6.40;;;4.65;;
21420;SDS011;10871;50.144;8.428;2023-12-28T02:56:24;7.93;;;4.95;;
21420;SDS011;10871;50.144;8.428;2023-12-28T02:58:51;7.47;;;4.60;;
21420;SDS011;10871;50.144;8.428;2023-12-28T03:01:17;7.32;;;4.97;;
21420;SDS011;10871;50.144;8.428;2023-12-28T03:03:44;9.20;;;4.68;;
21420;SDS011;10871;50.144;8.428;2023-12-28T03:06:10;6.90;;;5.10;;
21420;SDS011;10871;50.144;8.428;2023-12-28T03:08:37;8.75;;;5.10;;
21420;SDS011;10871;50.144;8.428;2023-12-28T03:11:03;8.48;;;5.35;;
21420;SDS011;10871;50.144;8.428;2023-12-28T03:13:29;7.88;;;5.35;;
21420;SDS011;10871;50.144;8.428;2023-12-28T03:15:58;6.18;;;4.88;;
21420;SDS011;10871;50.144;8.428;2023-12-28T03:18:24;11.23;;;4.70;;
21420;SDS011;10871;50.144;8.428;2023-12-28T03:20:51;7.28;;;4.63;;
21420;SDS011;10871;50.144;8.428;2023-12-28T03:23:17;6.18;;;4.40;;
21420;SDS011;10871;50.144;8.428;2023-12-28T03:25:46;7.70;;;4.75;;
21420;SDS011;10871;50.144;8.428;2023-12-28T03:28:13;9.18;;;4.88;;
21420;SDS011;10871;50.144;8.428;2023-12-28T03:30:39;8.40;;;5.03;;
21420;SDS011;10871;50.144;8.428;2023-12-28T03:33:06;6.75;;;4.60;;
21420;SDS011;10871;50.144;8.428;2023-12-28T03:35:33;8.77;;;4.60;;
21420;SDS011;10871;50.144;8.428;2023-12-28T03:37:59;7.63;;;4.93;;
21420;SDS011;10871;50.144;8.428;2023-12-28T03:40:26;7.43;;;4.68;;
21420;SDS011;10871;50.144;8.428;2023-12-28T03:42:53;8.23;;;4.80;;
21420;SDS011;10871;50.144;8.428;2023-12-28T03:45:19;6.40;;;4.55;;
21420;SDS011;10871;50.144;8.428;2023-12-28T03:47:46;7.65;;;4.47;;
21420;SDS011;10871;50.144;8.428;2023-12-28T03:50:12;8.27;;;5.00;;
21420;SDS011;10871;50.144;8.428;2023-12-28T03:52:39;6.13;;;4.28;;
21420;SDS011;10871;50.144;8.428;2023-12-28T03:55:05;7.10;;;4.70;;
21420;SDS011;10871;50.144;8.428;2023-12-28T03:57:32;8.18;;;4.80;;
21420;SDS011;10871;50.144;8.428;2023-12-28T03:59:59;5.95;;;4.07;;
21420;SDS011;10871;50.144;8.428;2023-12-28T04:02:25;6.35;;;4.70;;
21420;SDS011;10871;50.144;8.428;2023-12-28T04:04:54;6.57;;;4.70;;
21420;SDS011;10871;50.144;8.428;2023-12-28T04:07:22;6.65;;;4.38;;
21420;SDS011;10871;50.144;8.428;2023-12-28T04:09:48;6.93;;;4.55;;
21420;SDS011;10871;50.144;8.428;2023-12-28T04:12:14;7.57;;;4.28;;
21420;SDS011;10871;50.144;8.428;2023-12-28T04:14:41;6.72;;;4.75;;
21420;SDS011;10871;50.144;8.428;2023-12-28T04:17:07;7.07;;;4.75;;
21420;SDS011;10871;50.144;8.428;2023-12-28T04:19:34;7.20;;;4.90;;
21420;SDS011;10871;50.144;8.428;2023-12-28T04:22:00;6.15;;;4.28;;
21420;SDS011;10871;50.144;8.428;2023-12-28T04:24:27;6.70;;;4.25;;
21420;SDS011;10871;50.144;8.428;2023-12-28T04:26:53;7.35;;;5.00;;
21420;SDS011;10871;50.144;8.428;2023-12-28T04:29:19;8.05;;;4.70;;
21420;SDS011;10871;50.144;8.428;2023-12-28T04:31:47;8.18;;;4.53;;
21420;SDS011;10871;50.144;8.428;2023-12-28T04:34:14;9.65;;;4.97;;
21420;SDS011;10871;50.144;8.428;2023-12-28T04:36:41;7.57;;;4.68;;
21420;SDS011;10871;50.144;8.428;2023-12-28T04:39:08;6.10;;;4.28;;
21420;SDS011;10871;50.144;8.428;2023-12-28T04:41:34;5.68;;;3.97;;
21420;SDS011;10871;50.144;8.428;2023-12-28T04:44:01;6.95;;;4.72;;
21420;SDS011;10871;50.144;8.428;2023-12-28T04:46:28;9.07;;;5.43;;
21420;SDS011;10871;50.144;8.428;2023-12-28T04:48:54;9.02;;;4.65;;
21420;SDS011;10871;50.144;8.428;2023-12-28T04:51:21;7.45;;;4.60;;
21420;SDS011;10871;50.144;8.428;2023-12-28T04:53:47;7.18;;;4.70;;
21420;SDS011;10871;50.144;8.428;2023-12-28T04:56:17;7.45;;;4.75;;
21420;SDS011;10871;50.144;8.428;2023-12-28T04:58:44;10.55;;;4.82;;
21420;SDS011;10871;50.144;8.428;2023-12-28T05:01:10;6.97;;;4.97;;
21420;SDS011;10871;50.144;8.428;2023-12-28T05:03:37;5.85;;;4.82;;
21420;SDS011;10871;50.144;8.428;2023-12-28T05:06:03;8.52;;;5.07;;
21420;SDS011;10871;50.144;8.428;2023-12-28T05:08:30;8.75;;;5.10;;
21420;SDS011;10871;50.144;8.428;2023-12-28T05:10:57;5.82;;;4.65;;
21420;SDS011;10871;50.144;8.428;2023-12-28T05:13:23;11.13;;;5.10;;
21420;SDS011;10871;50.144;8.428;2023-12-28T05:15:50;7.50;;;4.88;;
21420;SDS011;10871;50.144;8.428;2023-12-28T05:18:16;7.65;;;4.97;;
21420;SDS011;10871;50.144;8.428;2023-12-28T05:20:43;7.50;;;5.00;;
21420;SDS011;10871;50.144;8.428;2023-12-28T05:23:09;7.43;;;4.88;;
21420;SDS011;10871;50.144;8.428;2023-12-28T05:25:35;7.95;;;5.15;;
21420;SDS011;10871;50.144;8.428;2023-12-28T05:28:02;9.75;;;5.10;;
21420;SDS011;10871;50.144;8.428;2023-12-28T05:30:29;8.07;;;5.20;;
21420;SDS011;10871;50.144;8.428;2023-12-28T05:32:56;6.57;;;5.10;;
21420;SDS011;10871;50.144;8.428;2023-12-28T05:35:22;6.97;;;5.03;;
21420;SDS011;10871;50.144;8.428;2023-12-28T05:37:48;10.27;;;5.50;;
21420;SDS011;10871;50.144;8.428;2023-12-28T05:40:15;7.32;;;4.78;;
21420;SDS011;10871;50.144;8.428;2023-12-28T05:42:41;7.72;;;5.00;;
21420;SDS011;10871;50.144;8.428;2023-12-28T05:45:08;9.18;;;5.50;;
21420;SDS011;10871;50.144;8.428;2023-12-28T05:47:35;9.38;;;5.55;;
21420;SDS011;10871;50.144;8.428;2023-12-28T05:50:01;7.53;;;4.95;;
21420;SDS011;10871;50.144;8.428;2023-12-28T05:52:29;9.73;;;5.30;;
21420;SDS011;10871;50.144;8.428;2023-12-28T05:54:56;9.15;;;5.47;;
21420;SDS011;10871;50.144;8.428;2023-12-28T05:57:23;8.18;;;5.40;;
21420;SDS011;10871;50.144;8.428;2023-12-28T05:59:49;9.10;;;5.93;;
21420;SDS011;10871;50.144;8.428;2023-12-28T06:02:15;12.63;;;6.65;;
21420;SDS011;10871;50.144;8.428;2023-12-28T06:04:42;9.38;;;5.80;;
21420;SDS011;10871;50.144;8.428;2023-12-28T06:07:08;8.35;;;6.10;;
21420;SDS011;10871;50.144;8.428;2023-12-28T06:09:35;8.68;;;5.97;;
21420;SDS011;10871;50.144;8.428;2023-12-28T06:12:03;6.75;;;5.60;;
21420;SDS011;10871;50.144;8.428;2023-12-28T06:14:29;10.43;;;6.68;;
21420;SDS011;10871;50.144;8.428;2023-12-28T06:16:56;8.75;;;6.20;;
21420;SDS011;10871;50.144;8.428;2023-12-28T06:19:22;10.15;;;7.10;;
21420;SDS011;10871;50.144;8.428;2023-12-28T06:21:49;10.02;;;7.00;;
21420;SDS011;10871;50.144;8.428;2023-12-28T06:24:16;9.02;;;6.82;;
21420;SDS011;10871;50.144;8.428;2023-12-28T06:26:42;9.75;;;6.45;;
21420;SDS011;10871;50.144;8.428;2023-12-28T06:29:09;8.45;;;6.25;;
21420;SDS011;10871;50.144;8.428;2023-12-28T06:31:36;11.88;;;6.88;;
21420;SDS011;10871;50.144;8.428;2023-12-28T06:34:03;11.20;;;6.13;;
21420;SDS011;10871;50.144;8.428;2023-12-28T06:36:30;7.40;;;5.97;;
21420;SDS011;10871;50.144;8.428;2023-12-28T06:38:57;9.00;;;6.35;;
21420;SDS011;10871;50.144;8.428;2023-12-28T06:41:23;9.75;;;6.55;;
21420;SDS011;10871;50.144;8.428;2023-12-28T06:43:50;7.50;;;5.90;;
21420;SDS011;10871;50.144;8.428;2023-12-28T06:46:16;8.45;;;6.70;;
21420;SDS011;10871;50.144;8.428;2023-12-28T06:48:43;8.82;;;6.28;;
21420;SDS011;10871;50.144;8.428;2023-12-28T06:51:15;10.80;;;6.43;;
21420;SDS011;10871;50.144;8.428;2023-12-28T06:53:42;8.35;;;6.07;;
21420;SDS011;10871;50.144;8.428;2023-12-28T06:56:09;8.25;;;6.07;;
21420;SDS011;10871;50.144;8.428;2023-12-28T06:58:35;8.77;;;6.15;;
21420;SDS011;10871;50.144;8.428;2023-12-28T07:01:04;9.10;;;6.03;;
21420;SDS011;10871;50.144;8.428;2023-12-28T07:03:31;7.90;;;6.20;;
21420;SDS011;10871;50.144;8.428;2023-12-28T07:05:59;11.48;;;6.25;;
21420;SDS011;10871;50.144;8.428;2023-12-28T07:08:25;8.48;;;6.30;;
21420;SDS011;10871;50.144;8.428;2023-12-28T07:10:52;7.38;;;6.05;;
21420;SDS011;10871;50.144;8.428;2023-12-28T07:13:18;9.90;;;6.03;;
21420;SDS011;10871;50.144;8.428;2023-12-28T07:15:45;7.88;;;6.07;;
21420;SDS011;10871;50.144;8.428;2023-12-28T07:18:11;7.95;;;5.93;;
21420;SDS011;10871;50.144;8.428;2023-12-28T07:20:38;9.93;;;5.88;;
21420;SDS011;10871;50.144;8.428;2023-12-28T07:23:05;8.98;;;5.72;;
21420;SDS011;10871;50.144;8.428;2023-12-28T07:25:31;7.20;;;5.57;;
21420;SDS011;10871;50.144;8.428;2023-12-28T07:27:57;6.03;;;5.03;;
21420;SDS011;10871;50.144;8.428;2023-12-28T07:30:24;7.78;;;5.65;;
21420;SDS011;10871;50.144;8.428;2023-12-28T07:32:51;6.72;;;5.10;;
21420;SDS011;10871;50.144;8.428;2023-12-28T07:35:17;7.07;;;5.10;;
21420;SDS011;10871;50.144;8.428;2023-12-28T07:37:44;7.22;;;4.97;;
21420;SDS011;10871;50.144;8.428;2023-12-28T07:40:11;8.68;;;5.03;;
21420;SDS011;10871;50.144;8.428;2023-12-28T07:42:38;6.90;;;5.22;;
21420;SDS011;10871;50.144;8.428;2023-12-28T07:45:04;8.60;;;5.03;;
21420;SDS011;10871;50.144;8.428;2023-12-28T07:47:31;7.50;;;5.05;;
21420;SDS011;10871;50.144;8.428;2023-12-28T07:49:57;6.55;;;4.95;;
21420;SDS011;10871;50.144;8.428;2023-12-28T07:52:24;7.10;;;4.95;;
21420;SDS011;10871;50.144;8.428;2023-12-28T07:54:50;6.78;;;5.47;;
21420;SDS011;10871;50.144;8.428;2023-12-28T07:57:17;6.40;;;5.32;;
21420;SDS011;10871;50.144;8.428;2023-12-28T07:59:44;7.70;;;5.38;;
21420;SDS011;10871;50.144;8.428;2023-12-28T08:02:10;5.85;;;4.90;;
21420;SDS011;10871;50.144;8.428;2023-12-28T08:04:36;7.47;;;5.07;;
21420;SDS011;10871;50.144;8.428;2023-12-28T08:07:03;8.68;;;5.13;;
21420;SDS011;10871;50.144;8.428;2023-12-28T08:09:30;9.35;;;5.75;;
21420;SDS011;10871;50.144;8.428;2023-12-28T08:11:57;8.23;;;5.30;;
21420;SDS011;10871;50.144;8.428;2023-12-28T08:14:23;8.52;;;5.10;;
21420;SDS011;10871;50.144;8.428;2023-12-28T08:16:50;5.78;;;4.80;;
21420;SDS011;10871;50.144;8.428;2023-12-28T08:19:16;7.88;;;5.20;;
21420;SDS011;10871;50.144;8.428;2023-12-28T08:21:43;6.15;;;4.60;;
21420;SDS011;10871;50.144;8.428;2023-12-28T08:24:09;5.82;;;4.50;;
21420;SDS011;10871;50.144;8.428;2023-12-28T08:26:36;6.43;;;4.63;;
21420;SDS011;10871;50.144;8.428;2023-12-28T08:29:02;5.30;;;4.28;;
21420;SDS011;10871;50.144;8.428;2023-12-28T08:31:29;6.13;;;4.60;;
21420;SDS011;10871;50.144;8.428;2023-12-28T08:33:56;8.60;;;4.78;;
21420;SDS011;10871;50.144;8.428;2023-12-28T08:36:23;8.02;;;4.85;;
21420;SDS011;10871;50.144;8.428;2023-12-28T08:38:49;8.45;;;5.03;;
21420;SDS011;10871;50.144;8.428;2023-12-28T08:41:22;7.45;;;4.68;;
21420;SDS011;10871;50.144;8.428;2023-12-28T08:43:50;6.15;;;4.47;;
21420;SDS011;10871;50.144;8.428;2023-12-28T08:46:16;6.03;;;4.75;;
21420;SDS011;10871;50.144;8.428;2023-12-28T08:48:43;7.93;;;5.43;;
21420;SDS011;10871;50.144;8.428;2023-12-28T08:51:10;7.38;;;5.00;;
21420;SDS011;10871;50.144;8.428;2023-12-28T08:53:37;6.60;;;4.53;;
21420;SDS011;10871;50.144;8.428;2023-12-28T08:56:16;6.53;;;4.13;;
21420;SDS011;10871;50.144;8.428;2023-12-28T08:58:46;6.25;;;4.60;;
21420;SDS011;10871;50.144;8.428;2023-12-28T09:01:16;6.15;;;4.13;;
21420;SDS011;10871;50.144;8.428;2023-12-28T09:03:43;7.20;;;3.90;;
21420;SDS011;10871;50.144;8.428;2023-12-28T09:06:09;6.28;;;3.90;;
21420;SDS011;10871;50.144;8.428;2023-12-28T09:08:36;4.63;;;3.83;;
21420;SDS011;10871;50.144;8.428;2023-12-28T09:11:03;4.60;;;3.90;;
21420;SDS011;10871;50.144;8.428;2023-12-28T09:13:30;6.18;;;4.40;;
21420;SDS011;10871;50.144;8.428;2023-12-28T09:15:57;6.85;;;4.50;;
21420;SDS011;10871;50.144;8.428;2023-12-28T09:18:23;6.03;;;4.43;;
21420;SDS011;10871;50.144;8.428;2023-12-28T09:20:50;8.90;;;4.65;;
21420;SDS011;10871;50.144;8.428;2023-12-28T09:23:16;5.88;;;4.47;;
21420;SDS011;10871;50.144;8.428;2023-12-28T09:25:43;6.32;;;4.15;;
21420;SDS011;10871;50.144;8.428;2023-12-28T09:28:09;5.18;;;4.07;;
21420;SDS011;10871;50.144;8.428;2023-12-28T09:30:36;5.85;;;4.15;;
21420;SDS011;10871;50.144;8.428;2023-12-28T09:33:02;5.78;;;3.92;;
21420;SDS011;10871;50.144;8.428;2023-12-28T09:35:29;6.65;;;4.47;;
21420;SDS011;10871;50.144;8.428;2023-12-28T09:37:56;6.00;;;4.15;;
21420;SDS011;10871;50.144;8.428;2023-12-28T09:40:24;6.53;;;4.30;;
21420;SDS011;10871;50.144;8.428;2023-12-28T09:45:19;8.88;;;5.00;;
21420;SDS011;10871;50.144;8.428;2023-12-28T09:47:46;7.45;;;4.10;;
21420;SDS011;10871;50.144;8.428;2023-12-28T09:50:17;7.10;;;4.88;;
21420;SDS011;10871;50.144;8.428;2023-12-28T09:52:44;5.30;;;4.28;;
21420;SDS011;10871;50.144;8.428;2023-12-28T09:55:10;10.65;;;4.47;;
21420;SDS011;10871;50.144;8.428;2023-12-28T09:57:37;8.13;;;4.38;;
21420;SDS011;10871;50.144;8.428;2023-12-28T10:00:04;6.28;;;4.65;;
21420;SDS011;10871;50.144;8.428;2023-12-28T10:02:38;7.70;;;4.45;;
21420;SDS011;10871;50.144;8.428;2023-12-28T10:05:06;7.15;;;4.72;;
21420;SDS011;10871;50.144;8.428;2023-12-28T10:07:32;6.65;;;4.80;;
21420;SDS011;10871;50.144;8.428;2023-12-28T10:09:58;6.18;;;4.35;;
21420;SDS011;10871;50.144;8.428;2023-12-28T10:12:25;7.05;;;4.60;;
21420;SDS011;10871;50.144;8.428;2023-12-28T10:14:53;5.28;;;4.28;;
21420;SDS011;10871;50.144;8.428;2023-12-28T10:17:20;6.45;;;4.30;;
21420;SDS011;10871;50.144;8.428;2023-12-28T10:19:46;5.22;;;4.05;;
21420;SDS011;10871;50.144;8.428;2023-12-28T10:22:17;6.85;;;4.63;;
21420;SDS011;10871;50.144;8.428;2023-12-28T10:24:43;5.35;;;4.40;;
21420;SDS011;10871;50.144;8.428;2023-12-28T10:27:10;7.18;;;3.85;;
21420;SDS011;10871;50.144;8.428;2023-12-28T10:29:36;6.75;;;3.72;;
21420;SDS011;10871;50.144;8.428;2023-12-28T10:32:03;9.20;;;4.70;;
21420;SDS011;10871;50.144;8.428;2023-12-28T10:34:30;5.03;;;3.80;;
21420;SDS011;10871;50.144;8.428;2023-12-28T10:36:57;7.10;;;3.78;;
21420;SDS011;10871;50.144;8.428;2023-12-28T10:39:25;7.68;;;3.85;;
21420;SDS011;10871;50.144;8.428;2023-12-28T10:41:53;5.00;;;3.50;;
21420;SDS011;10871;50.144;8.428;2023-12-28T10:44:21;4.35;;;3.33;;
21420;SDS011;10871;50.144;8.428;2023-12-28T10:46:50;5.15;;;3.50;;
21420;SDS011;10871;50.144;8.428;2023-12-28T10:49:17;6.15;;;3.55;;
21420;SDS011;10871;50.144;8.428;2023-12-28T10:51:52;4.82;;;3.55;;
21420;SDS011;10871;50.144;8.428;2023-12-28T10:56:47;3.40;;;2.50;;
21420;SDS011;10871;50.144;8.428;2023-12-28T10:59:22;9.95;;;3.10;;
21420;SDS011;10871;50.144;8.428;2023-12-28T11:01:51;4.40;;;2.90;;
21420;SDS011;10871;50.144;8.428;2023-12-28T11:06:47;5.32;;;2.78;;
21420;SDS011;10871;50.144;8.428;2023-12-28T11:09:14;3.97;;;2.70;;
21420;SDS011;10871;50.144;8.428;2023-12-28T11:11:45;3.70;;;2.60;;
21420;SDS011;10871;50.144;8.428;2023-12-28T11:14:12;7.70;;;3.00;;
21420;SDS011;10871;50.144;8.428;2023-12-28T11:16:38;3.88;;;2.47;;
21420;SDS011;10871;50.144;8.428;2023-12-28T11:19:06;4.40;;;2.72;;
21420;SDS011;10871;50.144;8.428;2023-12-28T11:21:33;2.78;;;2.00;;
21420;SDS011;10871;50.144;8.428;2023-12-28T11:24:00;3.63;;;1.88;;
21420;SDS011;10871;50.144;8.428;2023-12-28T11:26:27;4.88;;;2.25;;
21420;SDS011;10871;50.144;8.428;2023-12-28T11:29:01;4.68;;;3.75;;
21420;SDS011;10871;50.144;8.428;2023-12-28T11:31:28;4.80;;;3.90;;
21420;SDS011;10871;50.144;8.428;2023-12-28T11:33:59;4.57;;;2.10;;
21420;SDS011;10871;50.144;8.428;2023-12-28T11:36:36;5.72;;;2.63;;
21420;SDS011;10871;50.144;8.428;2023-12-28T11:39:05;3.25;;;2.97;;
21420;SDS011;10871;50.144;8.428;2023-12-28T11:41:33;2.50;;;1.70;;
21420;SDS011;10871;50.144;8.428;2023-12-28T11:44:02;4.13;;;3.72;;
21420;SDS011;10871;50.144;8.428;2023-12-28T11:46:31;4.22;;;1.90;;
21420;SDS011;10871;50.144;8.428;2023-12-28T11:49:04;5.15;;;2.10;;
21420;SDS011;10871;50.144;8.428;2023-12-28T11:51:32;3.37;;;1.90;;
21420;SDS011;10871;50.144;8.428;2023-12-28T11:53:58;3.38;;;1.58;;
21420;SDS011;10871;50.144;8.428;2023-12-28T11:56:25;3.20;;;1.70;;
21420;SDS011;10871;50.144;8.428;2023-12-28T11:58:52;3.22;;;2.08;;
21420;SDS011;10871;50.144;8.428;2023-12-28T12:01:18;3.97;;;1.85;;
21420;SDS011;10871;50.144;8.428;2023-12-28T12:03:44;3.92;;;1.65;;
21420;SDS011;10871;50.144;8.428;2023-12-28T12:06:11;1.95;;;1.52;;
21420;SDS011;10871;50.144;8.428;2023-12-28T12:08:38;3.58;;;1.77;;
21420;SDS011;10871;50.144;8.428;2023-12-28T12:11:05;3.03;;;1.77;;
21420;SDS011;10871;50.144;8.428;2023-12-28T12:13:31;2.63;;;1.73;;
21420;SDS011;10871;50.144;8.428;2023-12-28T12:15:58;6.40;;;1.73;;
21420;SDS011;10871;50.144;8.428;2023-12-28T12:18:25;3.40;;;1.60;;
21420;SDS011;10871;50.144;8.428;2023-12-28T12:20:52;2.63;;;1.50;;
21420;SDS011;10871;50.144;8.428;2023-12-28T12:23:18;3.60;;;1.80;;
21420;SDS011;10871;50.144;8.428;2023-12-28T12:25:45;5.78;;;2.15;;
21420;SDS011;10871;50.144;8.428;2023-12-28T12:28:11;2.63;;;1.90;;
21420;SDS011;10871;50.144;8.428;2023-12-28T12:30:38;5.72;;;1.70;;
21420;SDS011;10871;50.144;8.428;2023-12-28T12:33:05;2.22;;;1.50;;
21420;SDS011;10871;50.144;8.428;2023-12-28T12:35:31;5.30;;;1.75;;
21420;SDS011;10871;50.144;8.428;2023-12-28T12:37:58;3.70;;;2.15;;
21420;SDS011;10871;50.144;8.428;2023-12-28T12:40:24;4.95;;;1.80;;
21420;SDS011;10871;50.144;8.428;2023-12-28T12:42:54;4.05;;;2.22;;
21420;SDS011;10871;50.144;8.428;2023-12-28T12:45:20;5.75;;;1.80;;
21420;SDS011;10871;50.144;8.428;2023-12-28T12:47:51;2.42;;;1.70;;
21420;SDS011;10871;50.144;8.428;2023-12-28T12:50:17;3.25;;;1.80;;
21420;SDS011;10871;50.144;8.428;2023-12-28T12:52:44;5.15;;;1.90;;
21420;SDS011;10871;50.144;8.428;2023-12-28T12:55:12;3.75;;;1.60;;
21420;SDS011;10871;50.144;8.428;2023-12-28T12:57:39;4.13;;;1.75;;
21420;SDS011;10871;50.144;8.428;2023-12-28T13:00:06;4.85;;;1.58;;
21420;SDS011;10871;50.144;8.428;2023-12-28T13:02:35;5.03;;;1.90;;
21420;SDS011;10871;50.144;8.428;2023-12-28T13:05:03;3.65;;;1.90;;
21420;SDS011;10871;50.144;8.428;2023-12-28T13:07:31;4.03;;;1.70;;
21420;SDS011;10871;50.144;8.428;2023-12-28T13:09:58;4.05;;;3.65;;
21420;SDS011;10871;50.144;8.428;2023-12-28T13:12:24;4.15;;;1.85;;
21420;SDS011;10871;50.144;8.428;2023-12-28T13:14:51;2.42;;;1.55;;
21420;SDS011;10871;50.144;8.428;2023-12-28T13:17:17;2.58;;;1.80;;
21420;SDS011;10871;50.144;8.428;2023-12-28T13:19:43;5.13;;;1.88;;
21420;SDS011;10871;50.144;8.428;2023-12-28T13:22:10;4.18;;;2.25;;
21420;SDS011;10871;50.144;8.428;2023-12-28T13:24:36;6.57;;;2.15;;
21420;SDS011;10871;50.144;8.428;2023-12-28T13:27:03;5.55;;;1.77;;
21420;SDS011;10871;50.144;8.428;2023-12-28T13:29:29;3.83;;;2.00;;
21420;SDS011;10871;50.144;8.428;2023-12-28T13:31:56;4.97;;;3.00;;
21420;SDS011;10871;50.144;8.428;2023-12-28T13:34:22;5.35;;;3.05;;
21420;SDS011;10871;50.144;8.428;2023-12-28T13:36:49;4.28;;;1.85;;
21420;SDS011;10871;50.144;8.428;2023-12-28T13:39:15;7.65;;;2.20;;
21420;SDS011;10871;50.144;8.428;2023-12-28T13:41:43;3.47;;;1.92;;
21420;SDS011;10871;50.144;8.428;2023-12-28T13:44:10;3.47;;;2.00;;
21420;SDS011;10871;50.144;8.428;2023-12-28T13:46:38;3.90;;;3.00;;
21420;SDS011;10871;50.144;8.428;2023-12-28T13:49:05;4.95;;;2.55;;
21420;SDS011;10871;50.144;8.428;2023-12-28T13:51:34;5.00;;;2.90;;
21420;SDS011;10871;50.144;8.428;2023-12-28T13:54:01;3.65;;;2.05;;
21420;SDS011;10871;50.144;8.428;2023-12-28T13:56:31;6.10;;;2.70;;
21420;SDS011;10871;50.144;8.428;2023-12-28T13:58:57;6.68;;;2.47;;
21420;SDS011;10871;50.144;8.428;2023-12-28T14:01:24;5.40;;;2.40;;
21420;SDS011;10871;50.144;8.428;2023-12-28T14:03:50;5.80;;;2.80;;
21420;SDS011;10871;50.144;8.428;2023-12-28T14:06:18;6.15;;;2.75;;
21420;SDS011;10871;50.144;8.428;2023-12-28T14:08:45;9.68;;;2.70;;
21420;SDS011;10871;50.144;8.428;2023-12-28T14:11:11;4.03;;;2.78;;
21420;SDS011;10871;50.144;8.428;2023-12-28T14:13:38;7.90;;;2.53;;
21420;SDS011;10871;50.144;8.428;2023-12-28T14:16:04;4.47;;;2.60;;
21420;SDS011;10871;50.144;8.428;2023-12-28T14:18:31;6.03;;;2.35;;
21420;SDS011;10871;50.144;8.428;2023-12-28T14:20:57;4.50;;;2.47;;
21420;SDS011;10871;50.144;8.428;2023-12-28T14:23:24;6.60;;;2.47;;
21420;SDS011;10871;50.144;8.428;2023-12-28T14:25:50;3.55;;;2.60;;
21420;SDS011;10871;50.144;8.428;2023-12-28T14:28:20;8.25;;;2.40;;
21420;SDS011;10871;50.144;8.428;2023-12-28T14:30:47;4.50;;;2.20;;
21420;SDS011;10871;50.144;8.428;2023-12-28T14:33:14;4.07;;;2.13;;
21420;SDS011;10871;50.144;8.428;2023-12-28T14:35:40;2.60;;;2.03;;
21420;SDS011;10871;50.144;8.428;2023-12-28T14:38:08;2.35;;;1.77;;
21420;SDS011;10871;50.144;8.428;2023-12-28T14:40:34;1.98;;;1.70;;
21420;SDS011;10871;50.144;8.428;2023-12-28T14:43:01;3.55;;;1.73;;
21420;SDS011;10871;50.144;8.428;2023-12-28T14:45:28;2.28;;;1.67;;
21420;SDS011;10871;50.144;8.428;2023-12-28T14:47:54;2.05;;;1.40;;
21420;SDS011;10871;50.144;8.428;2023-12-28T14:50:20;1.90;;;1.45;;
21420;SDS011;10871;50.144;8.428;2023-12-28T14:52:47;2.80;;;1.70;;